sensor_id;sensor_type;location;lat;lon;timestamp;pressure;altitude;pressure_sealevel;temperature;humidity
26087;BME280;13851;43.434;28.338;2023-02-13T00:00:09;101813.50;;;1.86;100.00
26087;BME280;13851;43.434;28.338;2023-02-13T00:02:41;101786.41;;;1.70;100.00
26087;BME280;13851;43.434;28.338;2023-02-13T00:05:06;101506.00;;;0.04;100.00
26087;BME280;13851;43.434;28.338;2023-02-13T00:07:32;101813.81;;;1.80;100.00
26087;BME280;13851;43.434;28.338;2023-02-13T00:09:58;101873.19;;;1.81;100.00
26087;BME280;13851;43.434;28.338;2023-02-13T00:12:26;101863.53;;;2.12;100.00
26087;BME280;13851;43.434;28.338;2023-02-13T00:14:53;101768.69;;;1.65;100.00
26087;BME280;13851;43.434;28.338;2023-02-13T00:17:19;101806.09;;;1.72;100.00
26087;BME280;13851;43.434;28.338;2023-02-13T00:19:47;101837.00;;;1.84;100.00
26087;BME280;13851;43.434;28.338;2023-02-13T00:22:13;101903.66;;;1.85;100.00
26087;BME280;13851;43.434;28.338;2023-02-13T00:24:41;101858.34;;;1.90;100.00
26087;BME280;13851;43.434;28.338;2023-02-13T00:27:06;101843.38;;;1.66;100.00
26087;BME280;13851;43.434;28.338;2023-02-13T00:29:34;101838.69;;;1.69;100.00
26087;BME280;13851;43.434;28.338;2023-02-13T00:32:00;101615.75;;;0.19;100.00
26087;BME280;13851;43.434;28.338;2023-02-13T00:34:27;101829.69;;;1.69;100.00
26087;BME280;13851;43.434;28.338;2023-02-13T00:36:53;101861.75;;;1.94;100.00
26087;BME280;13851;43.434;28.338;2023-02-13T00:39:18;101870.75;;;1.58;100.00
26087;BME280;13851;43.434;28.338;2023-02-13T00:41:44;101848.31;;;1.75;100.00
26087;BME280;13851;43.434;28.338;2023-02-13T00:44:12;101882.97;;;1.84;100.00
26087;BME280;13851;43.434;28.338;2023-02-13T00:46:37;101778.69;;;1.26;100.00
26087;BME280;13851;43.434;28.338;2023-02-13T00:49:04;101571.50;;;0.06;100.00
26087;BME280;13851;43.434;28.338;2023-02-13T00:51:29;101908.03;;;1.69;100.00
26087;BME280;13851;43.434;28.338;2023-02-13T00:53:55;101574.63;;;-0.04;100.00
26087;BME280;13851;43.434;28.338;2023-02-13T00:56:21;101852.88;;;1.55;100.00
26087;BME280;13851;43.434;28.338;2023-02-13T00:58:46;101568.94;;;0.03;100.00
26087;BME280;13851;43.434;28.338;2023-02-13T01:01:12;101883.22;;;1.79;100.00
26087;BME280;13851;43.434;28.338;2023-02-13T01:03:37;101571.41;;;-0.12;100.00
26087;BME280;13851;43.434;28.338;2023-02-13T01:06:03;101839.59;;;1.32;100.00
26087;BME280;13851;43.434;28.338;2023-02-13T01:08:32;101883.38;;;1.58;100.00
26087;BME280;13851;43.434;28.338;2023-02-13T01:10:57;101881.75;;;1.53;100.00
26087;BME280;13851;43.434;28.338;2023-02-13T01:13:23;101793.97;;;1.09;100.00
26087;BME280;13851;43.434;28.338;2023-02-13T01:15:50;101884.09;;;1.61;100.00
26087;BME280;13851;43.434;28.338;2023-02-13T01:18:17;101557.22;;;-0.15;100.00
26087;BME280;13851;43.434;28.338;2023-02-13T01:20:44;101754.13;;;0.95;100.00
26087;BME280;13851;43.434;28.338;2023-02-13T01:23:12;101551.38;;;-0.25;100.00
26087;BME280;13851;43.434;28.338;2023-02-13T01:25:41;101865.72;;;1.50;100.00
26087;BME280;13851;43.434;28.338;2023-02-13T01:28:10;101870.69;;;1.60;100.00
26087;BME280;13851;43.434;28.338;2023-02-13T01:30:35;101858.72;;;1.27;100.00
26087;BME280;13851;43.434;28.338;2023-02-13T01:33:01;101633.31;;;0.09;100.00
26087;BME280;13851;43.434;28.338;2023-02-13T01:35:30;101859.38;;;1.51;100.00
26087;BME280;13851;43.434;28.338;2023-02-13T01:37:55;101668.84;;;0.36;100.00
26087;BME280;13851;43.434;28.338;2023-02-13T01:40:24;101875.66;;;1.50;100.00
26087;BME280;13851;43.434;28.338;2023-02-13T01:42:49;101798.34;;;0.92;100.00
26087;BME280;13851;43.434;28.338;2023-02-13T01:45:27;101876.66;;;1.47;100.00
26087;BME280;13851;43.434;28.338;2023-02-13T01:47:59;101872.88;;;1.51;100.00
26087;BME280;13851;43.434;28.338;2023-02-13T01:53:04;101557.72;;;-0.46;100.00
26087;BME280;13851;43.434;28.338;2023-02-13T01:55:31;101579.41;;;-0.29;100.00
26087;BME280;13851;43.434;28.338;2023-02-13T01:58:11;101872.13;;;1.48;100.00
26087;BME280;13851;43.434;28.338;2023-02-13T02:00:39;101565.41;;;-0.37;100.00
26087;BME280;13851;43.434;28.338;2023-02-13T02:03:59;101885.47;;;1.34;100.00
26087;BME280;13851;43.434;28.338;2023-02-13T02:06:07;101847.66;;;1.15;100.00
26087;BME280;13851;43.434;28.338;2023-02-13T02:08:36;101617.41;;;-0.16;100.00
26087;BME280;13851;43.434;28.338;2023-02-13T02:11:08;101793.72;;;0.75;100.00
26087;BME280;13851;43.434;28.338;2023-02-13T02:13:36;101886.97;;;1.39;100.00
26087;BME280;13851;43.434;28.338;2023-02-13T02:16:02;101802.13;;;0.88;100.00
26087;BME280;13851;43.434;28.338;2023-02-13T02:18:27;101892.22;;;1.04;100.00
26087;BME280;13851;43.434;28.338;2023-02-13T02:27:13;101902.50;;;1.15;100.00
26087;BME280;13851;43.434;28.338;2023-02-13T02:32:40;101890.72;;;1.18;100.00
26087;BME280;13851;43.434;28.338;2023-02-13T02:35:27;101891.41;;;1.21;100.00
26087;BME280;13851;43.434;28.338;2023-02-13T02:46:28;101865.34;;;1.01;100.00
26087;BME280;13851;43.434;28.338;2023-02-13T02:49:12;101846.91;;;0.92;100.00
26087;BME280;13851;43.434;28.338;2023-02-13T02:52:14;101896.25;;;1.15;100.00
26087;BME280;13851;43.434;28.338;2023-02-13T02:55:01;101891.84;;;1.12;100.00
26087;BME280;13851;43.434;28.338;2023-02-13T02:57:36;101843.69;;;0.84;100.00
26087;BME280;13851;43.434;28.338;2023-02-13T03:00:23;101939.88;;;0.85;100.00
26087;BME280;13851;43.434;28.338;2023-02-13T03:03:18;101763.88;;;0.02;100.00
26087;BME280;13851;43.434;28.338;2023-02-13T03:06:22;101594.16;;;-0.99;100.00
26087;BME280;13851;43.434;28.338;2023-02-13T03:08:59;101876.78;;;0.69;100.00
26087;BME280;13851;43.434;28.338;2023-02-13T03:11:50;101893.22;;;0.83;100.00
26087;BME280;13851;43.434;28.338;2023-02-13T03:14:37;101873.00;;;0.73;100.00
26087;BME280;13851;43.434;28.338;2023-02-13T03:17:04;101875.47;;;0.77;100.00
26087;BME280;13851;43.434;28.338;2023-02-13T03:19:56;101908.56;;;0.81;100.00
26087;BME280;13851;43.434;28.338;2023-02-13T03:25:52;101916.28;;;0.70;100.00
26087;BME280;13851;43.434;28.338;2023-02-13T03:34:15;101901.13;;;0.47;100.00
26087;BME280;13851;43.434;28.338;2023-02-13T03:36:49;101913.56;;;0.90;100.00
26087;BME280;13851;43.434;28.338;2023-02-13T03:42:41;101891.44;;;1.02;100.00
26087;BME280;13851;43.434;28.338;2023-02-13T03:45:13;101908.38;;;0.86;100.00
26087;BME280;13851;43.434;28.338;2023-02-13T03:48:01;101892.59;;;0.56;100.00
26087;BME280;13851;43.434;28.338;2023-02-13T03:50:36;101979.66;;;0.60;100.00
26087;BME280;13851;43.434;28.338;2023-02-13T03:53:08;101644.72;;;-1.07;100.00
26087;BME280;13851;43.434;28.338;2023-02-13T03:55:41;101880.03;;;-0.06;100.00
26087;BME280;13851;43.434;28.338;2023-02-13T03:58:33;101887.44;;;0.31;100.00
26087;BME280;13851;43.434;28.338;2023-02-13T04:01:21;101918.97;;;0.49;100.00
26087;BME280;13851;43.434;28.338;2023-02-13T04:06:22;101866.72;;;-0.09;100.00
26087;BME280;13851;43.434;28.338;2023-02-13T04:08:49;101878.84;;;-0.21;100.00
26087;BME280;13851;43.434;28.338;2023-02-13T04:11:27;101895.97;;;-0.22;100.00
26087;BME280;13851;43.434;28.338;2023-02-13T04:14:03;101959.28;;;-0.12;100.00
26087;BME280;13851;43.434;28.338;2023-02-13T04:16:38;101724.16;;;-1.20;100.00
26087;BME280;13851;43.434;28.338;2023-02-13T04:19:06;101937.31;;;-0.01;100.00
26087;BME280;13851;43.434;28.338;2023-02-13T04:21:34;101934.22;;;0.08;100.00
26087;BME280;13851;43.434;28.338;2023-02-13T04:24:03;101890.81;;;-0.06;100.00
26087;BME280;13851;43.434;28.338;2023-02-13T04:26:36;101932.34;;;0.10;100.00
26087;BME280;13851;43.434;28.338;2023-02-13T04:29:06;101649.50;;;-1.59;100.00
26087;BME280;13851;43.434;28.338;2023-02-13T04:31:32;101905.44;;;-0.34;100.00
26087;BME280;13851;43.434;28.338;2023-02-13T04:34:01;101818.53;;;-0.81;100.00
26087;BME280;13851;43.434;28.338;2023-02-13T04:36:27;101812.38;;;-0.85;100.00
26087;BME280;13851;43.434;28.338;2023-02-13T04:38:52;101950.09;;;-0.06;100.00
26087;BME280;13851;43.434;28.338;2023-02-13T04:41:18;101612.72;;;-1.79;100.00
26087;BME280;13851;43.434;28.338;2023-02-13T04:43:44;101645.09;;;-1.60;100.00
26087;BME280;13851;43.434;28.338;2023-02-13T04:46:09;101976.72;;;0.02;100.00
26087;BME280;13851;43.434;28.338;2023-02-13T04:48:35;101898.28;;;-0.13;100.00
26087;BME280;13851;43.434;28.338;2023-02-13T04:51:00;101881.84;;;-0.07;100.00
26087;BME280;13851;43.434;28.338;2023-02-13T04:53:26;101596.16;;;-1.68;100.00
26087;BME280;13851;43.434;28.338;2023-02-13T04:55:52;101942.13;;;0.13;100.00
26087;BME280;13851;43.434;28.338;2023-02-13T04:58:17;101878.22;;;-0.06;100.00
26087;BME280;13851;43.434;28.338;2023-02-13T05:00:43;101904.66;;;0.07;100.00
26087;BME280;13851;43.434;28.338;2023-02-13T05:03:14;101855.06;;;-0.10;100.00
26087;BME280;13851;43.434;28.338;2023-02-13T05:05:40;101920.16;;;0.02;100.00
26087;BME280;13851;43.434;28.338;2023-02-13T05:08:07;101901.88;;;0.08;100.00
26087;BME280;13851;43.434;28.338;2023-02-13T05:10:33;101988.44;;;0.22;100.00
26087;BME280;13851;43.434;28.338;2023-02-13T05:13:00;101912.84;;;0.04;100.00
26087;BME280;13851;43.434;28.338;2023-02-13T05:15:26;101919.56;;;-0.07;100.00
26087;BME280;13851;43.434;28.338;2023-02-13T05:17:52;101944.47;;;0.20;100.00
26087;BME280;13851;43.434;28.338;2023-02-13T05:20:21;101921.22;;;-0.03;100.00
26087;BME280;13851;43.434;28.338;2023-02-13T05:22:49;101953.72;;;0.57;100.00
26087;BME280;13851;43.434;28.338;2023-02-13T05:25:35;101927.06;;;0.70;100.00
26087;BME280;13851;43.434;28.338;2023-02-13T05:28:01;101993.41;;;1.15;100.00
26087;BME280;13851;43.434;28.338;2023-02-13T05:30:27;101675.09;;;-0.02;100.00
26087;BME280;13851;43.434;28.338;2023-02-13T05:32:52;101801.59;;;0.80;100.00
26087;BME280;13851;43.434;28.338;2023-02-13T05:35:22;101928.13;;;1.99;100.00
26087;BME280;13851;43.434;28.338;2023-02-13T05:37:48;101958.91;;;2.33;100.00
26087;BME280;13851;43.434;28.338;2023-02-13T05:40:14;101918.63;;;2.09;100.00
26087;BME280;13851;43.434;28.338;2023-02-13T05:42:40;101951.19;;;2.25;100.00
26087;BME280;13851;43.434;28.338;2023-02-13T05:45:07;101991.50;;;1.94;100.00
26087;BME280;13851;43.434;28.338;2023-02-13T05:47:33;101576.06;;;-0.55;100.00
26087;BME280;13851;43.434;28.338;2023-02-13T05:49:59;101875.34;;;1.37;100.00
26087;BME280;13851;43.434;28.338;2023-02-13T05:52:24;101843.97;;;0.97;100.00
26087;BME280;13851;43.434;28.338;2023-02-13T05:54:50;101961.50;;;1.81;100.00
26087;BME280;13851;43.434;28.338;2023-02-13T05:57:15;101894.47;;;1.51;100.00
26087;BME280;13851;43.434;28.338;2023-02-13T05:59:41;101952.44;;;1.82;100.00
26087;BME280;13851;43.434;28.338;2023-02-13T06:02:06;101900.63;;;1.55;100.00
26087;BME280;13851;43.434;28.338;2023-02-13T06:04:32;101925.84;;;1.73;100.00
26087;BME280;13851;43.434;28.338;2023-02-13T06:06:57;101964.78;;;1.69;100.00
26087;BME280;13851;43.434;28.338;2023-02-13T06:09:23;101954.78;;;1.90;100.00
26087;BME280;13851;43.434;28.338;2023-02-13T06:11:48;101658.97;;;0.36;100.00
26087;BME280;13851;43.434;28.338;2023-02-13T06:14:14;101768.41;;;0.97;100.00
26087;BME280;13851;43.434;28.338;2023-02-13T06:16:40;101985.50;;;2.42;100.00
26087;BME280;13851;43.434;28.338;2023-02-13T06:19:05;101965.00;;;2.19;100.00
26087;BME280;13851;43.434;28.338;2023-02-13T06:21:31;101939.88;;;2.34;100.00
26087;BME280;13851;43.434;28.338;2023-02-13T06:24:02;102005.81;;;2.51;100.00
26087;BME280;13851;43.434;28.338;2023-02-13T06:26:28;101979.94;;;2.80;100.00
26087;BME280;13851;43.434;28.338;2023-02-13T06:28:53;101928.34;;;2.66;100.00
26087;BME280;13851;43.434;28.338;2023-02-13T06:31:19;101979.44;;;2.89;100.00
26087;BME280;13851;43.434;28.338;2023-02-13T06:33:44;102014.31;;;3.12;100.00
26087;BME280;13851;43.434;28.338;2023-02-13T06:36:12;101987.28;;;3.28;100.00
26087;BME280;13851;43.434;28.338;2023-02-13T06:38:38;101979.03;;;3.14;100.00
26087;BME280;13851;43.434;28.338;2023-02-13T06:41:03;102025.91;;;3.32;100.00
26087;BME280;13851;43.434;28.338;2023-02-13T06:43:29;101991.91;;;3.59;100.00
26087;BME280;13851;43.434;28.338;2023-02-13T06:45:55;101959.91;;;3.66;100.00
26087;BME280;13851;43.434;28.338;2023-02-13T06:48:21;101984.56;;;3.77;100.00
26087;BME280;13851;43.434;28.338;2023-02-13T06:50:47;101971.19;;;4.06;100.00
26087;BME280;13851;43.434;28.338;2023-02-13T06:53:12;101663.50;;;2.28;100.00
26087;BME280;13851;43.434;28.338;2023-02-13T06:55:38;101965.41;;;3.96;100.00
26087;BME280;13851;43.434;28.338;2023-02-13T06:58:07;101728.81;;;2.69;100.00
26087;BME280;13851;43.434;28.338;2023-02-13T07:00:33;101728.06;;;2.99;100.00
26087;BME280;13851;43.434;28.338;2023-02-13T07:03:03;101653.06;;;2.69;100.00
26087;BME280;13851;43.434;28.338;2023-02-13T07:05:29;101961.78;;;4.43;100.00
26087;BME280;13851;43.434;28.338;2023-02-13T07:07:58;101800.78;;;3.52;100.00
26087;BME280;13851;43.434;28.338;2023-02-13T07:10:23;101676.88;;;2.78;100.00
26087;BME280;13851;43.434;28.338;2023-02-13T07:12:49;101974.84;;;4.66;100.00
26087;BME280;13851;43.434;28.338;2023-02-13T07:15:15;101694.16;;;3.23;100.00
26087;BME280;13851;43.434;28.338;2023-02-13T07:17:41;101963.78;;;4.39;100.00
26087;BME280;13851;43.434;28.338;2023-02-13T07:20:07;101976.91;;;4.77;100.00
26087;BME280;13851;43.434;28.338;2023-02-13T07:22:33;101982.75;;;4.85;100.00
26087;BME280;13851;43.434;28.338;2023-02-13T07:25:01;101653.34;;;3.10;100.00
26087;BME280;13851;43.434;28.338;2023-02-13T07:27:29;101941.16;;;4.99;100.00
26087;BME280;13851;43.434;28.338;2023-02-13T07:29:55;101922.75;;;5.18;100.00
26087;BME280;13851;43.434;28.338;2023-02-13T07:32:24;101941.28;;;5.55;100.00
26087;BME280;13851;43.434;28.338;2023-02-13T07:34:49;101879.50;;;5.42;100.00
26087;BME280;13851;43.434;28.338;2023-02-13T07:37:15;101968.19;;;6.15;100.00
26087;BME280;13851;43.434;28.338;2023-02-13T07:39:40;101971.97;;;6.12;100.00
26087;BME280;13851;43.434;28.338;2023-02-13T07:42:06;101964.97;;;6.08;100.00
26087;BME280;13851;43.434;28.338;2023-02-13T07:44:32;101905.19;;;5.94;100.00
26087;BME280;13851;43.434;28.338;2023-02-13T07:46:57;101994.84;;;6.37;100.00
26087;BME280;13851;43.434;28.338;2023-02-13T07:49:26;101957.09;;;6.45;100.00
26087;BME280;13851;43.434;28.338;2023-02-13T07:51:51;101951.97;;;6.53;100.00
26087;BME280;13851;43.434;28.338;2023-02-13T07:54:17;101906.00;;;6.36;100.00
26087;BME280;13851;43.434;28.338;2023-02-13T07:56:42;101911.31;;;6.24;98.82
26087;BME280;13851;43.434;28.338;2023-02-13T07:59:09;101959.66;;;6.73;96.89
26087;BME280;13851;43.434;28.338;2023-02-13T08:01:35;101887.25;;;6.44;96.90
26087;BME280;13851;43.434;28.338;2023-02-13T08:04:00;101906.28;;;6.71;96.86
26087;BME280;13851;43.434;28.338;2023-02-13T08:06:26;101918.91;;;6.85;95.20
26087;BME280;13851;43.434;28.338;2023-02-13T08:08:53;101966.59;;;7.17;87.44
26087;BME280;13851;43.434;28.338;2023-02-13T08:11:39;101962.56;;;6.58;85.74
26087;BME280;13851;43.434;28.338;2023-02-13T08:14:18;101966.22;;;6.84;89.53
26087;BME280;13851;43.434;28.338;2023-02-13T08:16:50;101925.16;;;6.07;80.33
26087;BME280;13851;43.434;28.338;2023-02-13T08:19:19;101978.75;;;5.64;88.28
26087;BME280;13851;43.434;28.338;2023-02-13T08:21:45;101765.53;;;4.57;90.60
26087;BME280;13851;43.434;28.338;2023-02-13T08:24:11;101966.38;;;5.72;89.43
26087;BME280;13851;43.434;28.338;2023-02-13T08:26:37;101931.78;;;5.33;89.03
26087;BME280;13851;43.434;28.338;2023-02-13T08:29:04;101918.88;;;5.22;89.91
26087;BME280;13851;43.434;28.338;2023-02-13T08:31:30;101911.66;;;5.21;91.97
26087;BME280;13851;43.434;28.338;2023-02-13T08:33:56;101975.69;;;5.83;89.08
26087;BME280;13851;43.434;28.338;2023-02-13T08:36:25;101929.59;;;5.53;85.59
26087;BME280;13851;43.434;28.338;2023-02-13T08:38:53;101971.13;;;5.83;87.01
26087;BME280;13851;43.434;28.338;2023-02-13T08:41:19;101650.84;;;3.82;84.19
26087;BME280;13851;43.434;28.338;2023-02-13T08:43:52;101929.25;;;5.44;87.11
26087;BME280;13851;43.434;28.338;2023-02-13T08:46:17;101962.03;;;5.70;87.07
26087;BME280;13851;43.434;28.338;2023-02-13T08:48:45;101974.00;;;5.39;84.75
26087;BME280;13851;43.434;28.338;2023-02-13T08:51:12;101963.88;;;5.69;82.64
26087;BME280;13851;43.434;28.338;2023-02-13T08:53:38;102010.69;;;5.60;82.44
26087;BME280;13851;43.434;28.338;2023-02-13T08:56:04;101948.31;;;5.71;83.24
26087;BME280;13851;43.434;28.338;2023-02-13T08:58:30;101963.00;;;5.69;83.30
26087;BME280;13851;43.434;28.338;2023-02-13T09:00:56;101750.63;;;5.05;86.44
26087;BME280;13851;43.434;28.338;2023-02-13T09:03:21;101903.53;;;6.18;82.71
26087;BME280;13851;43.434;28.338;2023-02-13T09:05:47;101952.78;;;6.81;75.98
26087;BME280;13851;43.434;28.338;2023-02-13T09:08:13;101944.53;;;7.20;72.88
26087;BME280;13851;43.434;28.338;2023-02-13T09:10:40;101943.78;;;7.06;70.78
26087;BME280;13851;43.434;28.338;2023-02-13T09:13:08;101944.22;;;6.87;69.26
26087;BME280;13851;43.434;28.338;2023-02-13T09:15:40;101950.63;;;6.86;66.10
26087;BME280;13851;43.434;28.338;2023-02-13T09:18:06;101942.84;;;6.54;69.42
26087;BME280;13851;43.434;28.338;2023-02-13T09:20:32;101992.97;;;6.64;69.01
26087;BME280;13851;43.434;28.338;2023-02-13T09:22:57;101937.13;;;6.71;65.80
26087;BME280;13851;43.434;28.338;2023-02-13T09:25:23;101675.84;;;5.27;64.48
26087;BME280;13851;43.434;28.338;2023-02-13T09:27:49;101928.97;;;6.97;62.72
26087;BME280;13851;43.434;28.338;2023-02-13T09:30:14;101929.38;;;6.78;59.34
26087;BME280;13851;43.434;28.338;2023-02-13T09:32:47;101957.09;;;7.10;60.94
26087;BME280;13851;43.434;28.338;2023-02-13T09:35:13;101914.34;;;6.98;60.65
26087;BME280;13851;43.434;28.338;2023-02-13T09:37:39;101673.91;;;5.68;60.05
26087;BME280;13851;43.434;28.338;2023-02-13T09:40:14;101930.97;;;7.57;60.65
26087;BME280;13851;43.434;28.338;2023-02-13T09:42:45;101930.94;;;8.19;63.87
26087;BME280;13851;43.434;28.338;2023-02-13T09:45:12;101854.22;;;8.22;67.99
26087;BME280;13851;43.434;28.338;2023-02-13T09:47:43;101926.25;;;8.92;72.45
26087;BME280;13851;43.434;28.338;2023-02-13T09:50:17;101910.72;;;8.92;58.67
26087;BME280;13851;43.434;28.338;2023-02-13T09:52:44;101728.78;;;7.86;56.59
26087;BME280;13851;43.434;28.338;2023-02-13T09:55:46;101910.38;;;8.97;53.96
26087;BME280;13851;43.434;28.338;2023-02-13T10:00:49;101887.13;;;9.36;52.07
26087;BME280;13851;43.434;28.338;2023-02-13T10:06:45;101902.28;;;9.85;49.49
26087;BME280;13851;43.434;28.338;2023-02-13T10:09:33;101646.78;;;8.99;47.18
26087;BME280;13851;43.434;28.338;2023-02-13T10:12:20;101874.03;;;10.81;44.73
26087;BME280;13851;43.434;28.338;2023-02-13T10:17:53;101636.84;;;10.25;44.40
26087;BME280;13851;43.434;28.338;2023-02-13T10:20:41;101597.25;;;10.29;43.18
26087;BME280;13851;43.434;28.338;2023-02-13T10:23:26;101641.97;;;10.89;42.73
26087;BME280;13851;43.434;28.338;2023-02-13T10:26:00;101871.66;;;12.28;41.24
26087;BME280;13851;43.434;28.338;2023-02-13T10:28:43;101876.28;;;12.56;41.55
26087;BME280;13851;43.434;28.338;2023-02-13T10:31:14;101670.09;;;11.41;40.59
26087;BME280;13851;43.434;28.338;2023-02-13T10:33:54;101684.22;;;11.17;41.46
26087;BME280;13851;43.434;28.338;2023-02-13T10:36:26;101747.25;;;11.58;41.55
26087;BME280;13851;43.434;28.338;2023-02-13T10:58:56;101849.94;;;7.46;77.32
26087;BME280;13851;43.434;28.338;2023-02-13T11:01:59;101839.06;;;6.97;84.55
26087;BME280;13851;43.434;28.338;2023-02-13T11:04:28;101833.72;;;6.83;86.96
26087;BME280;13851;43.434;28.338;2023-02-13T11:06:59;101830.78;;;6.73;86.63
26087;BME280;13851;43.434;28.338;2023-02-13T11:09:26;101817.56;;;6.54;91.00
26087;BME280;13851;43.434;28.338;2023-02-13T11:11:52;101812.53;;;6.22;92.34
26087;BME280;13851;43.434;28.338;2023-02-13T11:14:25;101738.28;;;6.08;93.46
26087;BME280;13851;43.434;28.338;2023-02-13T11:17:02;101576.56;;;4.68;94.86
26087;BME280;13851;43.434;28.338;2023-02-13T11:19:49;101606.84;;;5.42;95.85
26087;BME280;13851;43.434;28.338;2023-02-13T11:22:44;101809.09;;;6.59;94.22
26087;BME280;13851;43.434;28.338;2023-02-13T11:25:17;101749.63;;;6.40;100.00
26087;BME280;13851;43.434;28.338;2023-02-13T11:27:45;101799.00;;;7.47;100.00
26087;BME280;13851;43.434;28.338;2023-02-13T11:33:16;101847.19;;;7.22;97.05
26087;BME280;13851;43.434;28.338;2023-02-13T11:35:46;101711.28;;;7.29;100.00
26087;BME280;13851;43.434;28.338;2023-02-13T11:40:42;101742.75;;;7.09;91.00
26087;BME280;13851;43.434;28.338;2023-02-13T11:43:30;101794.91;;;6.92;96.32
26087;BME280;13851;43.434;28.338;2023-02-13T11:46:07;101780.53;;;6.77;100.00
26087;BME280;13851;43.434;28.338;2023-02-13T11:48:40;101726.06;;;6.64;100.00
26087;BME280;13851;43.434;28.338;2023-02-13T11:51:07;101801.16;;;6.81;100.00
26087;BME280;13851;43.434;28.338;2023-02-13T11:53:37;101496.47;;;5.78;100.00
26087;BME280;13851;43.434;28.338;2023-02-13T11:56:12;101773.41;;;7.00;100.00
26087;BME280;13851;43.434;28.338;2023-02-13T11:58:39;101819.16;;;7.57;90.01
26087;BME280;13851;43.434;28.338;2023-02-13T12:04:06;101757.06;;;7.85;80.27
26087;BME280;13851;43.434;28.338;2023-02-13T12:06:43;101454.28;;;6.21;79.37
26087;BME280;13851;43.434;28.338;2023-02-13T12:09:21;101797.50;;;7.67;83.42
26087;BME280;13851;43.434;28.338;2023-02-13T12:11:49;101655.31;;;6.88;84.55
26087;BME280;13851;43.434;28.338;2023-02-13T12:14:20;101470.78;;;6.07;86.05
26087;BME280;13851;43.434;28.338;2023-02-13T12:16:52;101733.72;;;8.16;81.55
26087;BME280;13851;43.434;28.338;2023-02-13T12:19:32;101715.53;;;7.92;83.41
26087;BME280;13851;43.434;28.338;2023-02-13T12:29:56;101739.53;;;7.76;86.58
26087;BME280;13851;43.434;28.338;2023-02-13T13:10:46;101766.13;;;7.61;93.87
26087;BME280;13851;43.434;28.338;2023-02-13T13:27:52;101711.31;;;7.53;100.00
26087;BME280;13851;43.434;28.338;2023-02-13T13:30:28;101538.94;;;6.66;100.00
26087;BME280;13851;43.434;28.338;2023-02-13T13:32:59;101426.16;;;6.10;100.00
26087;BME280;13851;43.434;28.338;2023-02-13T13:35:28;101698.88;;;7.49;100.00
26087;BME280;13851;43.434;28.338;2023-02-13T13:38:17;101662.91;;;7.44;100.00
26087;BME280;13851;43.434;28.338;2023-02-13T13:43:40;101420.19;;;6.29;100.00
26087;BME280;13851;43.434;28.338;2023-02-13T13:46:19;101666.94;;;7.62;99.90
26087;BME280;13851;43.434;28.338;2023-02-13T13:51:32;101626.47;;;8.02;100.00
26087;BME280;13851;43.434;28.338;2023-02-13T13:59:53;101709.31;;;8.37;89.95
26087;BME280;13851;43.434;28.338;2023-02-13T14:07:38;101618.59;;;9.31;83.28
26087;BME280;13851;43.434;28.338;2023-02-13T14:20:35;101652.81;;;8.15;89.09
26087;BME280;13851;43.434;28.338;2023-02-13T14:23:07;101361.16;;;6.29;98.05
26087;BME280;13851;43.434;28.338;2023-02-13T14:25:37;101634.09;;;8.66;96.59
26087;BME280;13851;43.434;28.338;2023-02-13T14:28:04;101650.00;;;9.48;87.39
26087;BME280;13851;43.434;28.338;2023-02-13T14:30:33;101642.75;;;9.58;82.36
26087;BME280;13851;43.434;28.338;2023-02-13T14:33:02;101587.19;;;8.93;85.68
26087;BME280;13851;43.434;28.338;2023-02-13T14:35:32;101430.34;;;7.98;84.49
26087;BME280;13851;43.434;28.338;2023-02-13T14:38:00;101637.00;;;8.97;88.66
26087;BME280;13851;43.434;28.338;2023-02-13T14:40:46;101638.28;;;8.59;95.04
26087;BME280;13851;43.434;28.338;2023-02-13T14:45:51;101627.03;;;7.72;100.00
26087;BME280;13851;43.434;28.338;2023-02-13T14:48:19;101634.13;;;6.68;100.00
26087;BME280;13851;43.434;28.338;2023-02-13T14:50:52;101632.13;;;6.83;100.00
26087;BME280;13851;43.434;28.338;2023-02-13T14:53:25;101347.44;;;4.46;100.00
26087;BME280;13851;43.434;28.338;2023-02-13T14:56:10;101334.31;;;4.52;100.00
26087;BME280;13851;43.434;28.338;2023-02-13T14:58:54;101631.88;;;6.86;100.00
26087;BME280;13851;43.434;28.338;2023-02-13T15:01:28;101629.50;;;7.29;100.00
26087;BME280;13851;43.434;28.338;2023-02-13T15:04:09;101620.94;;;7.22;100.00
26087;BME280;13851;43.434;28.338;2023-02-13T15:06:41;101614.97;;;7.17;100.00
26087;BME280;13851;43.434;28.338;2023-02-13T15:09:29;101634.38;;;6.89;100.00
26087;BME280;13851;43.434;28.338;2023-02-13T15:11:57;101624.56;;;6.62;100.00
26087;BME280;13851;43.434;28.338;2023-02-13T15:14:32;101591.81;;;6.51;100.00
26087;BME280;13851;43.434;28.338;2023-02-13T15:17:14;101518.66;;;6.46;100.00
26087;BME280;13851;43.434;28.338;2023-02-13T15:19:52;101636.66;;;6.58;100.00
26087;BME280;13851;43.434;28.338;2023-02-13T15:22:34;101537.28;;;5.52;100.00
26087;BME280;13851;43.434;28.338;2023-02-13T15:25:01;101545.28;;;5.15;100.00
26087;BME280;13851;43.434;28.338;2023-02-13T15:27:29;101619.06;;;5.09;100.00
26087;BME280;13851;43.434;28.338;2023-02-13T15:30:01;101628.19;;;4.81;100.00
26087;BME280;13851;43.434;28.338;2023-02-13T15:32:35;101609.81;;;4.16;100.00
26087;BME280;13851;43.434;28.338;2023-02-13T15:35:27;101684.09;;;4.00;100.00
26087;BME280;13851;43.434;28.338;2023-02-13T15:37:53;101609.59;;;3.77;100.00
26087;BME280;13851;43.434;28.338;2023-02-13T15:40:26;101630.06;;;3.52;100.00
26087;BME280;13851;43.434;28.338;2023-02-13T15:42:53;101636.84;;;3.45;100.00